Caribbean-star — A8KJ7 — position and weather

sailwx.info

Track history (hours):
 
Tides and Currents Weather Stations Pressure Air Temp Water Temp Dewpoint Dewpoint Depression Visibility Wind Speed Wind Dir Waves Ship Positions

Caribbean-star

Last reported at 2017-Nov-24 20:24 UTC. Time now 2017-Nov-25 09:48 UTC.
Position N 49°44' W 003°38'.

Length 185 m; draft 8.8 m.

Type: Cargo ship. MMSI: 636013068.

Date/timePositionNaut miles runAvg speedWind from/ knotsBaromVisibWave heightAir tempDewpointWater temp
2017-Nov-24 20:24N 49°44' W 003°38'714.7
2017-Nov-24 19:56N 49°47' W 003°29'614.9
2017-Nov-24 19:31N 49°51' W 003°21'815.3
2017-Nov-24 19:00N 49°55' W 003°11'815.8
2017-Nov-24 18:30N 49°58' W 002°60'816.3
2017-Nov-24 18:00N 50°00' W 002°48'2717.3
2017-Nov-24 16:27N 50°08' W 002°07'817.8
2017-Nov-24 16:00N 50°10' W 001°55'917.3
2017-Nov-24 15:30N 50°13' W 001°42'816.8
2017-Nov-24 15:01N 50°15' W 001°30'4414.5
2017-Nov-24 11:58N 50°27' W 000°23'613.6
2017-Nov-24 11:30N 50°29' W 000°14'713.8
2017-Nov-24 11:00N 50°30' W 000°03'714.0
2017-Nov-24 10:30N 50°32' E 000°08'714.4
2017-Nov-24 10:01N 50°33' E 000°19'714.9
2017-Nov-24 09:31N 50°35' E 000°30'815.5
2017-Nov-24 09:01N 50°39' E 000°40'816.0
2017-Nov-24 08:31N 50°44' E 000°50'816.3
2017-Nov-24 08:00N 50°49' E 001°01'916.3
2017-Nov-24 07:27N 50°55' E 001°11'715.4
2017-Nov-24 07:00N 50°59' E 001°19'612.2
2017-Nov-24 06:31N 51°03' E 001°26'611.3
2017-Nov-24 06:01N 51°07' E 001°33'510.8
2017-Nov-24 05:31N 51°10' E 001°40'612.5
2017-Nov-24 05:01N 51°15' E 001°48'713.9
2017-Nov-24 04:30N 51°20' E 001°54'713.4
2017-Nov-24 04:00N 51°25' E 002°01'714.6
2017-Nov-24 03:31N 51°22' E 002°11'713.3
2017-Nov-24 03:00N 51°21' E 002°22'714.0
2017-Nov-24 02:28N 51°23' E 002°33'712.2
2017-Nov-24 01:52N 51°22' E 002°45'412.3
2017-Nov-24 01:30N 51°22' E 002°52'714.6
2017-Nov-24 01:00N 51°25' E 003°03'714.4
2017-Nov-24 00:30N 51°25' E 003°15'714.4
2017-Nov-24 00:00N 51°25' E 003°26'612.2
2017-Nov-23 23:30N 51°26' E 003°36'4 8.4
2017-Nov-23 23:00N 51°25' E 003°43'612.8
2017-Nov-23 22:31N 51°21' E 003°51'713.5
2017-Nov-23 22:00N 51°26' E 003°58'510.4
2017-Nov-23 21:31N 51°22' E 004°05'510.4
2017-Nov-23 21:01N 51°23' E 004°13'510.1
2017-Nov-23 20:30N 51°18' E 004°16'1 2.9
2017-Nov-23 20:00N 51°17' E 004°15'0 0.1
2017-Nov-23 19:29N 51°17' E 004°15'1 1.7
2017-Nov-23 18:59N 51°16' E 004°15'0 0.0
2017-Nov-23 18:29N 51°16' E 004°15'0 0.0
2017-Nov-23 17:59N 51°16' E 004°15'0 0.0
2017-Nov-23 17:29N 51°16' E 004°15'0 0.0
2017-Nov-23 16:59N 51°16' E 004°15'0 0.0
2017-Nov-23 16:29N 51°16' E 004°15'0 0.0
2017-Nov-23 15:59N 51°16' E 004°15'0 0.0
2017-Nov-23 15:29N 51°16' E 004°15'0 0.0
2017-Nov-23 14:59N 51°16' E 004°15'0 0.0
2017-Nov-23 14:29N 51°16' E 004°15'0 0.0
2017-Nov-23 13:58N 51°16' E 004°15'0 0.0
2017-Nov-23 13:28N 51°16' E 004°15'0 0.0
2017-Nov-23 12:58N 51°16' E 004°15'0 0.0
2017-Nov-23 12:25N 51°16' E 004°15'0 0.0
2017-Nov-23 11:58N 51°16' E 004°15'0 0.0
2017-Nov-23 11:28N 51°16' E 004°15'0 0.0
2017-Nov-23 10:58N 51°16' E 004°15'0 0.0
2017-Nov-23 10:25N 51°16' E 004°15'0 0.0
2017-Nov-23 09:58N 51°16' E 004°15'0 0.0
2017-Nov-23 09:28N 51°16' E 004°15'0 0.0
2017-Nov-23 08:58N 51°16' E 004°15'0 0.0
2017-Nov-23 08:28N 51°16' E 004°15'0 0.0
2017-Nov-23 07:58N 51°16' E 004°15'0 0.0
2017-Nov-23 07:28N 51°16' E 004°15'0 0.0
2017-Nov-23 06:58N 51°16' E 004°15'0 0.0
2017-Nov-23 06:25N 51°16' E 004°15'0 0.0
2017-Nov-23 05:55N 51°16' E 004°15'0 0.0
2017-Nov-23 05:28N 51°16' E 004°15'0 0.0
2017-Nov-23 04:55N 51°16' E 004°15'0 0.0
2017-Nov-23 04:28N 51°16' E 004°15'0 0.0
2017-Nov-23 03:58N 51°16' E 004°15'0 0.0
2017-Nov-23 03:28N 51°16' E 004°15'0 0.0
2017-Nov-23 02:58N 51°16' E 004°15'0 0.0
2017-Nov-23 02:28N 51°16' E 004°15'0 0.0
2017-Nov-23 01:55N 51°16' E 004°15'0 0.0
2017-Nov-23 01:28N 51°16' E 004°15'0 0.0
2017-Nov-23 00:58N 51°16' E 004°15'0 0.0
2017-Nov-23 00:28N 51°16' E 004°15'0 0.0
2017-Nov-22 23:58N 51°16' E 004°15'0 0.0
2017-Nov-22 23:28N 51°16' E 004°15'0 0.0
2017-Nov-22 22:55N 51°16' E 004°15'0 0.0
2017-Nov-22 22:28N 51°16' E 004°15'0 0.0
2017-Nov-22 21:58N 51°16' E 004°15'0 0.0
2017-Nov-22 21:28N 51°16' E 004°15'0 0.0
2017-Nov-22 20:58N 51°16' E 004°15'0 0.0
2017-Nov-22 20:28N 51°16' E 004°15'0 0.0
2017-Nov-22 19:58N 51°16' E 004°15'0 0.0
2017-Nov-22 19:28N 51°16' E 004°15'  
2017-Nov-20 00:30N 51°16' E 004°15'0 0.9
2017-Nov-20 00:00N 51°16' E 004°15'1 1.0
2017-Nov-19 23:30N 51°17' E 004°15'0 0.5
2017-Nov-19 23:00N 51°17' E 004°15'3 6.2
2017-Nov-19 22:30N 51°20' E 004°16'510.2
2017-Nov-19 22:00N 51°24' E 004°11'510.7
2017-Nov-19 21:30N 51°24' E 004°02'4 7.0
2017-Nov-19 21:00N 51°23' E 003°57'612.3
2017-Nov-19 20:30N 51°21' E 003°47'612.2
2017-Nov-19 20:00N 51°26' E 003°41'5 9.2
2017-Nov-19 19:30N 51°25' E 003°34'611.6
2017-Nov-19 19:00N 51°24' E 003°24'612.2
2017-Nov-19 18:30N 51°25' E 003°15'612.4
2017-Nov-19 18:00N 51°24' E 003°05'713.7
2017-Nov-19 17:30N 51°24' E 002°54'712.9
2017-Nov-19 17:00N 51°23' E 002°43'510.2
2017-Nov-19 16:30N 51°22' E 002°35'1 2.2
2017-Nov-19 16:00N 51°23' E 002°37'2 3.3
2017-Nov-19 15:17N 51°22' E 002°40'1 1.6
2017-Nov-19 14:59N 51°22' E 002°40'612.1
2017-Nov-19 14:27N 51°22' E 002°30'715.4
2017-Nov-19 14:00N 51°19' E 002°20'817.0
2017-Nov-19 13:31N 51°14' E 002°08'917.1
2017-Nov-19 13:00N 51°10' E 001°56'817.0
2017-Nov-19 12:31N 51°05' E 001°45'714.6
2017-Nov-19 12:00N 51°00' E 001°37'816.1
2017-Nov-19 11:30N 50°54' E 001°29'3415.8
2017-Nov-19 09:22N 50°30' E 000°52'1417.1
2017-Nov-19 08:31N 50°25' E 000°31'016.8
2017-Nov-19 08:30N 50°25' E 000°30'917.3
2017-Nov-19 08:00N 50°23' E 000°17'817.0
2017-Nov-19 07:30N 50°20' E 000°04'816.6
2017-Nov-19 07:00N 50°21' W 000°09'816.4
2017-Nov-19 06:30N 50°25' W 000°20'816.3
2017-Nov-19 06:00N 50°29' W 000°31'816.0
2017-Nov-19 05:30N 50°34' W 000°41'815.9
2017-Nov-19 05:00N 50°39' W 000°51'612.5
2017-Nov-19 04:31N 50°42' W 000°59'611.3
2017-Nov-19 04:00N 50°46' W 001°06'2 4.5
2017-Nov-19 03:29N 50°49' W 001°06'0 0.1
2017-Nov-19 02:59N 50°49' W 001°05'0 0.0
2017-Nov-19 02:29N 50°49' W 001°05'0 0.0
2017-Nov-19 01:59N 50°49' W 001°05'0 0.0
2017-Nov-19 01:29N 50°49' W 001°05'0 0.0
2017-Nov-19 00:59N 50°49' W 001°05'0 0.0
2017-Nov-19 00:29N 50°49' W 001°05'0 0.0
2017-Nov-18 23:59N 50°49' W 001°05'0 0.0
2017-Nov-18 23:29N 50°49' W 001°05'0 0.0
2017-Nov-18 22:59N 50°49' W 001°05'0 0.0
2017-Nov-18 22:29N 50°49' W 001°05'0 0.0
2017-Nov-18 21:59N 50°49' W 001°05'0 0.0
2017-Nov-18 21:29N 50°49' W 001°05'0 0.0
2017-Nov-18 20:59N 50°49' W 001°05'0 0.0
2017-Nov-18 20:29N 50°49' W 001°05'0 0.0
2017-Nov-18 19:59N 50°49' W 001°05'0 0.0
2017-Nov-18 19:29N 50°49' W 001°05'0 0.0
2017-Nov-18 18:59N 50°49' W 001°05'0 0.0
2017-Nov-18 18:29N 50°49' W 001°05'0 0.0
2017-Nov-18 17:59N 50°49' W 001°05'0 0.0
2017-Nov-18 17:29N 50°49' W 001°05'0 0.0
2017-Nov-18 16:59N 50°49' W 001°05'0 0.0
2017-Nov-18 16:29N 50°49' W 001°05'0 0.0
2017-Nov-18 15:59N 50°49' W 001°05'0 0.0
2017-Nov-18 15:29N 50°49' W 001°05'0 0.0
2017-Nov-18 14:59N 50°49' W 001°05'0 0.0
2017-Nov-18 14:29N 50°49' W 001°05'0 0.0
2017-Nov-18 13:59N 50°49' W 001°05'0 0.0
2017-Nov-18 13:29N 50°49' W 001°05'0 0.0
2017-Nov-18 12:59N 50°49' W 001°05'0 0.0
2017-Nov-18 12:29N 50°49' W 001°05'1 2.1
2017-Nov-18 12:01N 50°48' W 001°07'4 7.0
2017-Nov-18 11:31N 50°45' W 001°05'611.3
2017-Nov-18 11:00N 50°41' W 000°58'3 6.6
2017-Nov-18 10:31N 50°38' W 000°59'3 6.8
2017-Nov-18 10:01N 50°35' W 000°58'3 5.2
2017-Nov-18 09:30N 50°33' W 001°01'713.3
2017-Nov-18 09:00N 50°29' W 001°09'1119.7
2017-Nov-18 08:25N 50°22' W 001°24'921.2
2017-Nov-18 08:00N 50°17' W 001°35'1121.7
2017-Nov-18 07:30N 50°12' W 001°51'1020.9
2017-Nov-18 07:00N 50°05' W 002°02'3120.4
2017-Nov-18 05:28N 49°52' W 002°46'1319.6
2017-Nov-18 04:48N 49°46' W 003°05'619.6
2017-Nov-18 04:30N 49°43' W 003°13'3419.3
2017-Nov-18 02:44N 49°26' W 003°58'1219.1
2017-Nov-18 02:05N 49°19' W 004°14'218.5
2017-Nov-18 01:59N 49°18' W 004°17'1019.0
2017-Nov-18 01:27N 49°13' W 004°30'1018.7
2017-Nov-18 00:55N 49°08' W 004°43'818.4
2017-Nov-18 00:30N 49°04' W 004°54'918.1
2017-Nov-18 00:00N 48°60' W 005°05'917.8
2017-Nov-17 23:30N 48°55' W 005°17'816.1
2017-Nov-17 23:00N 48°51' W 005°27'714.9
2017-Nov-17 22:31N 48°46' W 005°36'814.6
2017-Nov-17 22:00N 48°40' W 005°43'916.6
2017-Nov-17 21:28N 48°32' W 005°48'1616.7
2017-Nov-17 20:30N 48°18' W 005°59'916.6
2017-Nov-17 19:58N 48°10' W 006°05'1016.9
2017-Nov-17 19:24N 48°02' W 006°12'2216.9
2017-Nov-17 18:06N 47°42' W 006°26'217.2
2017-Nov-17 18:00N 47°40' W 006°27'1317.2
2017-Nov-17 17:15N 47°29' W 006°37'1618.3
2017-Nov-17 16:23N 47°15' W 006°48'818.1
2017-Nov-17 15:55N 47°08' W 006°53'1118.4
2017-Nov-17 15:20N 46°58' W 007°01'  
2017-Nov-14 23:39N 28°46' W 014°42'317.4
2017-Nov-14 23:31N 28°44' W 014°42'917.4
2017-Nov-14 23:00N 28°35' W 014°45'917.4
2017-Nov-14 22:30N 28°27' W 014°48'917.9
2017-Nov-14 22:00N 28°18' W 014°50'917.9
2017-Nov-14 21:30N 28°10' W 014°54'917.7
2017-Nov-14 21:00N 28°02' W 014°57'917.8
2017-Nov-14 20:30N 27°53' W 015°01'  
Track history (hours):
 
Tides and Currents Weather Stations Pressure Air Temp Water Temp Dewpoint Dewpoint Depression Visibility Wind Speed Wind Dir Waves Ship Positions

Caribbean-star

Last reported at 2017-Nov-24 20:24 UTC. Time now 2017-Nov-25 09:48 UTC.
Position N 49°44' W 003°38'.

Length 185 m; draft 8.8 m.

Type: Cargo ship. MMSI: 636013068.

Date/timePositionNaut miles runAvg speedWind from/ knotsBaromVisibWave heightAir tempDewpointWater temp
2017-Nov-24 20:24N 49°44' W 003°38'714.7
2017-Nov-24 19:56N 49°47' W 003°29'614.9
2017-Nov-24 19:31N 49°51' W 003°21'815.3
2017-Nov-24 19:00N 49°55' W 003°11'815.8
2017-Nov-24 18:30N 49°58' W 002°60'816.3
2017-Nov-24 18:00N 50°00' W 002°48'2717.3
2017-Nov-24 16:27N 50°08' W 002°07'817.8
2017-Nov-24 16:00N 50°10' W 001°55'917.3
2017-Nov-24 15:30N 50°13' W 001°42'816.8
2017-Nov-24 15:01N 50°15' W 001°30'4414.5
2017-Nov-24 11:58N 50°27' W 000°23'613.6
2017-Nov-24 11:30N 50°29' W 000°14'713.8
2017-Nov-24 11:00N 50°30' W 000°03'714.0
2017-Nov-24 10:30N 50°32' E 000°08'714.4
2017-Nov-24 10:01N 50°33' E 000°19'714.9
2017-Nov-24 09:31N 50°35' E 000°30'815.5
2017-Nov-24 09:01N 50°39' E 000°40'816.0
2017-Nov-24 08:31N 50°44' E 000°50'816.3
2017-Nov-24 08:00N 50°49' E 001°01'916.3
2017-Nov-24 07:27N 50°55' E 001°11'715.4
2017-Nov-24 07:00N 50°59' E 001°19'612.2
2017-Nov-24 06:31N 51°03' E 001°26'611.3
2017-Nov-24 06:01N 51°07' E 001°33'510.8
2017-Nov-24 05:31N 51°10' E 001°40'612.5
2017-Nov-24 05:01N 51°15' E 001°48'713.9
2017-Nov-24 04:30N 51°20' E 001°54'713.4
2017-Nov-24 04:00N 51°25' E 002°01'714.6
2017-Nov-24 03:31N 51°22' E 002°11'713.3
2017-Nov-24 03:00N 51°21' E 002°22'714.0
2017-Nov-24 02:28N 51°23' E 002°33'712.2
2017-Nov-24 01:52N 51°22' E 002°45'412.3
2017-Nov-24 01:30N 51°22' E 002°52'714.6
2017-Nov-24 01:00N 51°25' E 003°03'714.4
2017-Nov-24 00:30N 51°25' E 003°15'714.4
2017-Nov-24 00:00N 51°25' E 003°26'612.2
2017-Nov-23 23:30N 51°26' E 003°36'4 8.4
2017-Nov-23 23:00N 51°25' E 003°43'612.8
2017-Nov-23 22:31N 51°21' E 003°51'713.5
2017-Nov-23 22:00N 51°26' E 003°58'510.4
2017-Nov-23 21:31N 51°22' E 004°05'510.4
2017-Nov-23 21:01N 51°23' E 004°13'510.1
2017-Nov-23 20:30N 51°18' E 004°16'1 2.9
2017-Nov-23 20:00N 51°17' E 004°15'0 0.1
2017-Nov-23 19:29N 51°17' E 004°15'1 1.7
2017-Nov-23 18:59N 51°16' E 004°15'0 0.0
2017-Nov-23 18:29N 51°16' E 004°15'0 0.0
2017-Nov-23 17:59N 51°16' E 004°15'0 0.0
2017-Nov-23 17:29N 51°16' E 004°15'0 0.0
2017-Nov-23 16:59N 51°16' E 004°15'0 0.0
2017-Nov-23 16:29N 51°16' E 004°15'0 0.0
2017-Nov-23 15:59N 51°16' E 004°15'0 0.0
2017-Nov-23 15:29N 51°16' E 004°15'0 0.0
2017-Nov-23 14:59N 51°16' E 004°15'0 0.0
2017-Nov-23 14:29N 51°16' E 004°15'0 0.0
2017-Nov-23 13:58N 51°16' E 004°15'0 0.0
2017-Nov-23 13:28N 51°16' E 004°15'0 0.0
2017-Nov-23 12:58N 51°16' E 004°15'0 0.0
2017-Nov-23 12:25N 51°16' E 004°15'0 0.0
2017-Nov-23 11:58N 51°16' E 004°15'0 0.0
2017-Nov-23 11:28N 51°16' E 004°15'0 0.0
2017-Nov-23 10:58N 51°16' E 004°15'0 0.0
2017-Nov-23 10:25N 51°16' E 004°15'0 0.0
2017-Nov-23 09:58N 51°16' E 004°15'0 0.0
2017-Nov-23 09:28N 51°16' E 004°15'0 0.0
2017-Nov-23 08:58N 51°16' E 004°15'0 0.0
2017-Nov-23 08:28N 51°16' E 004°15'0 0.0
2017-Nov-23 07:58N 51°16' E 004°15'0 0.0
2017-Nov-23 07:28N 51°16' E 004°15'0 0.0
2017-Nov-23 06:58N 51°16' E 004°15'0 0.0
2017-Nov-23 06:25N 51°16' E 004°15'0 0.0
2017-Nov-23 05:55N 51°16' E 004°15'0 0.0
2017-Nov-23 05:28N 51°16' E 004°15'0 0.0
2017-Nov-23 04:55N 51°16' E 004°15'0 0.0
2017-Nov-23 04:28N 51°16' E 004°15'0 0.0
2017-Nov-23 03:58N 51°16' E 004°15'0 0.0
2017-Nov-23 03:28N 51°16' E 004°15'0 0.0
2017-Nov-23 02:58N 51°16' E 004°15'0 0.0
2017-Nov-23 02:28N 51°16' E 004°15'0 0.0
2017-Nov-23 01:55N 51°16' E 004°15'0 0.0
2017-Nov-23 01:28N 51°16' E 004°15'0 0.0
2017-Nov-23 00:58N 51°16' E 004°15'0 0.0
2017-Nov-23 00:28N 51°16' E 004°15'0 0.0
2017-Nov-22 23:58N 51°16' E 004°15'0 0.0
2017-Nov-22 23:28N 51°16' E 004°15'0 0.0
2017-Nov-22 22:55N 51°16' E 004°15'0 0.0
2017-Nov-22 22:28N 51°16' E 004°15'0 0.0
2017-Nov-22 21:58N 51°16' E 004°15'0 0.0
2017-Nov-22 21:28N 51°16' E 004°15'0 0.0
2017-Nov-22 20:58N 51°16' E 004°15'0 0.0
2017-Nov-22 20:28N 51°16' E 004°15'0 0.0
2017-Nov-22 19:58N 51°16' E 004°15'0 0.0
2017-Nov-22 19:28N 51°16' E 004°15'  
2017-Nov-20 00:30N 51°16' E 004°15'0 0.9
2017-Nov-20 00:00N 51°16' E 004°15'1 1.0
2017-Nov-19 23:30N 51°17' E 004°15'0 0.5
2017-Nov-19 23:00N 51°17' E 004°15'3 6.2
2017-Nov-19 22:30N 51°20' E 004°16'510.2
2017-Nov-19 22:00N 51°24' E 004°11'510.7
2017-Nov-19 21:30N 51°24' E 004°02'4 7.0
2017-Nov-19 21:00N 51°23' E 003°57'612.3
2017-Nov-19 20:30N 51°21' E 003°47'612.2
2017-Nov-19 20:00N 51°26' E 003°41'5 9.2
2017-Nov-19 19:30N 51°25' E 003°34'611.6
2017-Nov-19 19:00N 51°24' E 003°24'612.2
2017-Nov-19 18:30N 51°25' E 003°15'612.4
2017-Nov-19 18:00N 51°24' E 003°05'713.7
2017-Nov-19 17:30N 51°24' E 002°54'712.9
2017-Nov-19 17:00N 51°23' E 002°43'510.2
2017-Nov-19 16:30N 51°22' E 002°35'1 2.2
2017-Nov-19 16:00N 51°23' E 002°37'2 3.3
2017-Nov-19 15:17N 51°22' E 002°40'1 1.6
2017-Nov-19 14:59N 51°22' E 002°40'612.1
2017-Nov-19 14:27N 51°22' E 002°30'715.4
2017-Nov-19 14:00N 51°19' E 002°20'817.0
2017-Nov-19 13:31N 51°14' E 002°08'917.1
2017-Nov-19 13:00N 51°10' E 001°56'817.0
2017-Nov-19 12:31N 51°05' E 001°45'714.6
2017-Nov-19 12:00N 51°00' E 001°37'816.1
2017-Nov-19 11:30N 50°54' E 001°29'3415.8
2017-Nov-19 09:22N 50°30' E 000°52'1417.1
2017-Nov-19 08:31N 50°25' E 000°31'016.8
2017-Nov-19 08:30N 50°25' E 000°30'917.3
2017-Nov-19 08:00N 50°23' E 000°17'817.0
2017-Nov-19 07:30N 50°20' E 000°04'816.6
2017-Nov-19 07:00N 50°21' W 000°09'816.4
2017-Nov-19 06:30N 50°25' W 000°20'816.3
2017-Nov-19 06:00N 50°29' W 000°31'816.0
2017-Nov-19 05:30N 50°34' W 000°41'815.9
2017-Nov-19 05:00N 50°39' W 000°51'612.5
2017-Nov-19 04:31N 50°42' W 000°59'611.3
2017-Nov-19 04:00N 50°46' W 001°06'2 4.5
2017-Nov-19 03:29N 50°49' W 001°06'0 0.1
2017-Nov-19 02:59N 50°49' W 001°05'0 0.0
2017-Nov-19 02:29N 50°49' W 001°05'0 0.0
2017-Nov-19 01:59N 50°49' W 001°05'0 0.0
2017-Nov-19 01:29N 50°49' W 001°05'0 0.0
2017-Nov-19 00:59N 50°49' W 001°05'0 0.0
2017-Nov-19 00:29N 50°49' W 001°05'0 0.0
2017-Nov-18 23:59N 50°49' W 001°05'0 0.0
2017-Nov-18 23:29N 50°49' W 001°05'0 0.0
2017-Nov-18 22:59N 50°49' W 001°05'0 0.0
2017-Nov-18 22:29N 50°49' W 001°05'0 0.0
2017-Nov-18 21:59N 50°49' W 001°05'0 0.0
2017-Nov-18 21:29N 50°49' W 001°05'0 0.0
2017-Nov-18 20:59N 50°49' W 001°05'0 0.0
2017-Nov-18 20:29N 50°49' W 001°05'0 0.0
2017-Nov-18 19:59N 50°49' W 001°05'0 0.0
2017-Nov-18 19:29N 50°49' W 001°05'0 0.0
2017-Nov-18 18:59N 50°49' W 001°05'0 0.0
2017-Nov-18 18:29N 50°49' W 001°05'0 0.0
2017-Nov-18 17:59N 50°49' W 001°05'0 0.0
2017-Nov-18 17:29N 50°49' W 001°05'0 0.0
2017-Nov-18 16:59N 50°49' W 001°05'0 0.0
2017-Nov-18 16:29N 50°49' W 001°05'0 0.0
2017-Nov-18 15:59N 50°49' W 001°05'0 0.0
2017-Nov-18 15:29N 50°49' W 001°05'0 0.0
2017-Nov-18 14:59N 50°49' W 001°05'0 0.0
2017-Nov-18 14:29N 50°49' W 001°05'0 0.0
2017-Nov-18 13:59N 50°49' W 001°05'0 0.0
2017-Nov-18 13:29N 50°49' W 001°05'0 0.0
2017-Nov-18 12:59N 50°49' W 001°05'0 0.0
2017-Nov-18 12:29N 50°49' W 001°05'1 2.1
2017-Nov-18 12:01N 50°48' W 001°07'4 7.0
2017-Nov-18 11:31N 50°45' W 001°05'611.3
2017-Nov-18 11:00N 50°41' W 000°58'3 6.6
2017-Nov-18 10:31N 50°38' W 000°59'3 6.8
2017-Nov-18 10:01N 50°35' W 000°58'3 5.2
2017-Nov-18 09:30N 50°33' W 001°01'713.3
2017-Nov-18 09:00N 50°29' W 001°09'1119.7
2017-Nov-18 08:25N 50°22' W 001°24'921.2
2017-Nov-18 08:00N 50°17' W 001°35'1121.7
2017-Nov-18 07:30N 50°12' W 001°51'1020.9
2017-Nov-18 07:00N 50°05' W 002°02'3120.4
2017-Nov-18 05:28N 49°52' W 002°46'1319.6
2017-Nov-18 04:48N 49°46' W 003°05'619.6
2017-Nov-18 04:30N 49°43' W 003°13'3419.3
2017-Nov-18 02:44N 49°26' W 003°58'1219.1
2017-Nov-18 02:05N 49°19' W 004°14'218.5
2017-Nov-18 01:59N 49°18' W 004°17'1019.0
2017-Nov-18 01:27N 49°13' W 004°30'1018.7
2017-Nov-18 00:55N 49°08' W 004°43'818.4
2017-Nov-18 00:30N 49°04' W 004°54'918.1
2017-Nov-18 00:00N 48°60' W 005°05'917.8
2017-Nov-17 23:30N 48°55' W 005°17'816.1
2017-Nov-17 23:00N 48°51' W 005°27'714.9
2017-Nov-17 22:31N 48°46' W 005°36'814.6
2017-Nov-17 22:00N 48°40' W 005°43'916.6
2017-Nov-17 21:28N 48°32' W 005°48'1616.7
2017-Nov-17 20:30N 48°18' W 005°59'916.6
2017-Nov-17 19:58N 48°10' W 006°05'1016.9
2017-Nov-17 19:24N 48°02' W 006°12'2216.9
2017-Nov-17 18:06N 47°42' W 006°26'217.2
2017-Nov-17 18:00N 47°40' W 006°27'1317.2
2017-Nov-17 17:15N 47°29' W 006°37'1618.3
2017-Nov-17 16:23N 47°15' W 006°48'818.1
2017-Nov-17 15:55N 47°08' W 006°53'1118.4
2017-Nov-17 15:20N 46°58' W 007°01'  
2017-Nov-14 23:39N 28°46' W 014°42'317.4
2017-Nov-14 23:31N 28°44' W 014°42'917.4
2017-Nov-14 23:00N 28°35' W 014°45'917.4
2017-Nov-14 22:30N 28°27' W 014°48'917.9
2017-Nov-14 22:00N 28°18' W 014°50'917.9
2017-Nov-14 21:30N 28°10' W 014°54'917.7
2017-Nov-14 21:00N 28°02' W 014°57'917.8
2017-Nov-14 20:30N 27°53' W 015°01'  

Dump ship's entire track history